createdAt,value
2022-10-01T00:00:51.036Z,-124.28
2022-10-01T00:01:51.082Z,-124.68
2022-10-01T00:02:54.079Z,-124.27
2022-10-01T00:03:54.026Z,-124.08
2022-10-01T00:04:50.977Z,-124.10
2022-10-01T00:05:50.957Z,-124.42
2022-10-01T00:06:50.947Z,-124.30
2022-10-01T00:07:50.928Z,-124.30
2022-10-01T00:08:50.960Z,-124.24
2022-10-01T00:09:50.892Z,-124.23
2022-10-01T00:10:50.900Z,-124.46
2022-10-01T00:11:50.877Z,-124.81
2022-10-01T00:12:50.872Z,-124.76
2022-10-01T00:13:50.880Z,-124.81
2022-10-01T00:14:50.838Z,-124.81
2022-10-01T00:15:50.821Z,-124.63
2022-10-01T00:16:50.856Z,-124.64
2022-10-01T00:17:50.809Z,-124.49
2022-10-01T00:18:50.814Z,-124.36
2022-10-01T00:19:50.771Z,-124.63
2022-10-01T00:20:50.758Z,-124.81
2022-10-01T00:21:50.742Z,-124.81
2022-10-01T00:22:53.732Z,-124.80
2022-10-01T00:23:53.754Z,-124.26
2022-10-01T00:24:50.741Z,-124.51
2022-10-01T00:25:50.692Z,-124.40
2022-10-01T00:26:50.676Z,-124.81
2022-10-01T00:27:50.708Z,-124.45
2022-10-01T00:28:50.668Z,-124.30
2022-10-01T00:29:50.704Z,-124.40
2022-10-01T00:30:50.634Z,-124.61
2022-10-01T00:31:50.692Z,-124.41
2022-10-01T00:32:50.596Z,-124.24
2022-10-01T00:33:50.576Z,-124.34
2022-10-01T00:34:50.584Z,-124.66
2022-10-01T00:35:50.589Z,-124.81
2022-10-01T00:36:50.546Z,-124.61
2022-10-01T00:37:50.526Z,-124.57
2022-10-01T00:38:50.569Z,-124.19
2022-10-01T00:39:50.502Z,-124.26
2022-10-01T00:40:50.492Z,-123.98
2022-10-01T00:41:50.479Z,-124.48
2022-10-01T00:42:53.478Z,-124.42
2022-10-01T00:43:53.496Z,-124.42
2022-10-01T00:44:50.449Z,-124.66
2022-10-01T00:45:50.447Z,-124.55
2022-10-01T00:46:50.400Z,-124.68
2022-10-01T00:47:50.399Z,-124.58
2022-10-01T00:48:50.417Z,-124.63
2022-10-01T00:49:50.362Z,-124.81
2022-10-01T00:50:50.359Z,-124.78
2022-10-01T00:51:50.340Z,-125.08
2022-10-01T00:52:50.332Z,-124.81
2022-10-01T00:53:50.342Z,-124.81
2022-10-01T00:54:50.303Z,-124.81
2022-10-01T00:55:50.281Z,-124.72
2022-10-01T00:56:50.280Z,-124.81
2022-10-01T00:57:50.262Z,-124.50
2022-10-01T00:58:50.295Z,-124.81
2022-10-01T00:59:50.254Z,-125.23
2022-10-01T01:00:50.212Z,-124.81
2022-10-01T01:01:50.331Z,-125.44
2022-10-01T01:02:53.201Z,-125.26
2022-10-01T01:03:53.241Z,-124.81
2022-10-01T01:04:50.166Z,-124.81
2022-10-01T01:05:50.167Z,-125.12
2022-10-01T01:06:50.155Z,-125.27
2022-10-01T01:07:50.125Z,-125.30
2022-10-01T01:08:50.119Z,-125.41
2022-10-01T01:09:50.125Z,-125.15
2022-10-01T01:10:50.091Z,-125.13
2022-10-01T01:11:50.098Z,-124.81
2022-10-01T01:12:50.075Z,-125.10
2022-10-01T01:13:50.048Z,-125.28
2022-10-01T01:14:50.034Z,-125.29
2022-10-01T01:15:50.098Z,-125.27
2022-10-01T01:16:50.010Z,-124.81
2022-10-01T01:17:50.016Z,-125.31
2022-10-01T01:18:49.991Z,-125.77
2022-10-01T01:19:49.988Z,-125.67
2022-10-01T01:20:49.959Z,-125.65
2022-10-01T01:21:49.944Z,-125.37
2022-10-01T01:22:53.000Z,-125.52
2022-10-01T01:23:52.932Z,-125.33
2022-10-01T01:24:49.892Z,-125.18
2022-10-01T01:25:49.881Z,-125.46
2022-10-01T01:26:49.882Z,-125.68
2022-10-01T01:27:49.898Z,-125.59
2022-10-01T01:28:49.912Z,-125.96
2022-10-01T01:29:49.832Z,-125.67
2022-10-01T01:30:49.867Z,-126.03
2022-10-01T01:31:49.803Z,-126.03
2022-10-01T01:32:49.803Z,-126.03
2022-10-01T01:33:49.775Z,-125.71
2022-10-01T01:34:49.794Z,-125.97
2022-10-01T01:35:49.752Z,-126.03
2022-10-01T01:36:49.744Z,-126.03
2022-10-01T01:37:49.724Z,-126.03
2022-10-01T01:38:49.754Z,-126.03
2022-10-01T01:39:49.685Z,-126.03
2022-10-01T01:40:49.688Z,-126.73
2022-10-01T01:41:49.657Z,-126.03
2022-10-01T01:42:52.655Z,-126.03
2022-10-01T01:43:52.689Z,-126.03
2022-10-01T01:44:49.665Z,-126.03
2022-10-01T01:45:49.654Z,-126.03
2022-10-01T01:46:49.610Z,-126.03
2022-10-01T01:47:49.597Z,-126.03
2022-10-01T01:48:49.585Z,-126.03
2022-10-01T01:49:49.595Z,-127.01
2022-10-01T01:50:49.558Z,-126.75
2022-10-01T01:51:49.538Z,-126.03
2022-10-01T01:52:49.508Z,-126.99
2022-10-01T01:53:49.499Z,-127.11
2022-10-01T01:54:49.516Z,-127.24
2022-10-01T01:55:49.508Z,-127.21
2022-10-01T01:56:49.464Z,-126.89
2022-10-01T01:57:49.451Z,-126.99
2022-10-01T01:58:49.436Z,-127.10
2022-10-01T01:59:49.419Z,-127.23
2022-10-01T02:00:49.470Z,-127.24
2022-10-01T02:01:49.613Z,-127.24
2022-10-01T02:02:52.427Z,-127.24
2022-10-01T02:03:52.407Z,-126.98
2022-10-01T02:04:49.353Z,-127.24
2022-10-01T02:05:49.352Z,-127.24
2022-10-01T02:06:49.363Z,-127.24
2022-10-01T02:07:49.322Z,-127.24
2022-10-01T02:08:49.299Z,-127.24
2022-10-01T02:09:49.303Z,-127.24
2022-10-01T02:10:49.263Z,-128.46
2022-10-01T02:11:49.295Z,-128.46
2022-10-01T02:12:49.256Z,-128.43
2022-10-01T02:13:49.245Z,-128.25
2022-10-01T02:14:49.294Z,-127.24
2022-10-01T02:15:49.269Z,-128.35
2022-10-01T02:16:49.255Z,-127.24
2022-10-01T02:17:49.263Z,-127.24
2022-10-01T02:18:49.300Z,-127.24
2022-10-01T02:19:49.176Z,-127.24
2022-10-01T02:20:49.152Z,-127.24
2022-10-01T02:21:49.167Z,-127.24
2022-10-01T02:22:52.397Z,-127.18
2022-10-01T02:23:52.106Z,-126.93
2022-10-01T02:24:49.069Z,-127.03
2022-10-01T02:25:49.079Z,-127.15
2022-10-01T02:26:49.076Z,-127.16
2022-10-01T02:27:49.296Z,-126.81
2022-10-01T02:28:49.094Z,-126.03
2022-10-01T02:29:49.018Z,-126.80
2022-10-01T02:30:49.249Z,-127.10
2022-10-01T02:31:49.182Z,-127.24
2022-10-01T02:32:51.279Z,-127.24
2022-10-01T02:34:43.740Z,-127.10
2022-10-01T02:34:57.292Z,-127.17
2022-10-01T02:36:10.359Z,-126.02
2022-10-01T02:36:52.245Z,-125.87
2022-10-01T02:37:56.192Z,-125.71
2022-10-01T02:38:52.176Z,-125.96
2022-10-01T02:39:57.495Z,-125.67
2022-10-01T02:40:50.545Z,-125.52
2022-10-01T02:42:12.487Z,-125.21
2022-10-01T02:42:53.393Z,-124.81
2022-10-01T02:43:54.343Z,-124.40
2022-10-01T02:44:50.439Z,-124.24
2022-10-01T02:45:58.542Z,-124.53
2022-10-01T02:46:51.477Z,-124.81
2022-10-01T02:48:17.038Z,-124.81
2022-10-01T03:09:45.420Z,-123.12
2022-10-01T03:10:43.531Z,-123.71
2022-10-01T03:11:38.945Z,-123.75
2022-10-01T03:12:37.725Z,-124.02
2022-10-01T03:13:37.525Z,-123.94
2022-10-01T03:14:38.266Z,-124.07
2022-10-01T03:15:37.650Z,-123.75
2022-10-01T03:16:37.848Z,-123.84
2022-10-01T03:17:39.845Z,-123.95
2022-10-01T03:18:40.186Z,-123.90
2022-10-01T03:19:37.558Z,-124.10
2022-10-01T03:20:38.553Z,-123.90
2022-10-01T03:21:37.503Z,-123.69
2022-10-01T03:22:37.423Z,-123.70
2022-10-01T03:23:37.380Z,-123.37
2022-10-01T03:24:38.868Z,-123.54
2022-10-01T03:25:37.338Z,-123.48
2022-10-01T03:26:37.360Z,-123.54
2022-10-01T03:27:37.397Z,-123.39
2022-10-01T03:28:41.148Z,-123.12
2022-10-01T03:29:40.380Z,-122.85
2022-10-01T03:30:37.995Z,-123.27
2022-10-01T03:31:37.817Z,-123.00
2022-10-01T03:32:37.248Z,-123.14
2022-10-01T03:33:37.263Z,-122.74
2022-10-01T03:34:37.196Z,-123.12
2022-10-01T03:35:37.179Z,-123.11
2022-10-01T03:36:37.161Z,-122.69
2022-10-01T03:37:37.191Z,-122.79
2022-10-01T03:38:37.200Z,-122.91
2022-10-01T03:39:37.194Z,-122.85
2022-10-01T03:40:37.151Z,-123.13
2022-10-01T03:41:37.179Z,-123.18
2022-10-01T03:42:37.126Z,-123.14
2022-10-01T03:43:37.113Z,-122.98
2022-10-01T03:44:37.059Z,-122.69
2022-10-01T03:45:37.128Z,-122.85
2022-10-01T03:46:37.038Z,-122.95
2022-10-01T03:47:37.033Z,-123.05
2022-10-01T03:48:39.995Z,-123.33
2022-10-01T03:49:40.040Z,-122.99
2022-10-01T03:50:36.975Z,-122.63
2022-10-01T03:51:37.288Z,-122.78
2022-10-01T03:52:37.050Z,-122.91
2022-10-01T03:53:36.911Z,-123.16
2022-10-01T03:54:36.925Z,-122.87
2022-10-01T03:55:37.013Z,-122.74
2022-10-01T03:56:36.919Z,-122.70
2022-10-01T03:57:36.856Z,-122.87
2022-10-01T03:58:36.858Z,-122.83
2022-10-01T03:59:36.898Z,-122.99
2022-10-01T04:00:36.828Z,-122.95
2022-10-01T04:01:37.287Z,-122.68
2022-10-01T04:02:36.908Z,-122.64
2022-10-01T04:03:36.797Z,-122.72
2022-10-01T04:04:36.777Z,-123.03
2022-10-01T04:05:36.791Z,-123.16
2022-10-01T04:06:36.789Z,-123.35
2022-10-01T04:07:36.753Z,-122.89
2022-10-01T04:08:39.719Z,-122.59
2022-10-01T04:09:39.720Z,-122.75
2022-10-01T04:10:36.729Z,-123.04
2022-10-01T04:11:37.040Z,-123.10
2022-10-01T04:12:36.681Z,-123.22
2022-10-01T04:13:36.649Z,-122.49
2022-10-01T04:14:36.628Z,-122.40
2022-10-01T04:15:36.662Z,-122.40
2022-10-01T04:16:36.635Z,-122.42
2022-10-01T04:17:36.590Z,-122.25
2022-10-01T04:18:36.592Z,-122.76
2022-10-01T04:19:36.571Z,-122.59
2022-10-01T04:20:36.571Z,-122.57
2022-10-01T04:21:36.963Z,-122.85
2022-10-01T04:22:36.582Z,-123.18
2022-10-01T04:23:36.532Z,-123.21
2022-10-01T04:24:36.503Z,-122.99
2022-10-01T04:25:36.493Z,-122.93
2022-10-01T04:26:36.488Z,-122.74
2022-10-01T04:27:36.473Z,-122.78
2022-10-01T04:28:39.505Z,-123.03
2022-10-01T04:29:40.329Z,-122.92
2022-10-01T04:30:36.414Z,-122.68
2022-10-01T04:31:36.695Z,-123.06
2022-10-01T04:32:36.403Z,-123.48
2022-10-01T04:33:36.382Z,-122.99
2022-10-01T04:34:36.506Z,-123.05
2022-10-01T04:35:36.346Z,-122.96
2022-10-01T04:36:36.336Z,-123.21
2022-10-01T04:37:36.317Z,-122.95
2022-10-01T04:38:36.313Z,-122.83
2022-10-01T04:39:36.306Z,-123.12
2022-10-01T04:40:36.308Z,-123.16
2022-10-01T04:41:36.546Z,-122.95
2022-10-01T04:42:36.247Z,-123.25
2022-10-01T04:43:36.258Z,-122.75
2022-10-01T04:44:36.407Z,-123.05
2022-10-01T04:45:36.228Z,-123.66
2022-10-01T04:46:36.233Z,-123.60
2022-10-01T04:47:37.682Z,-123.44
2022-10-01T04:48:39.169Z,-123.51
2022-10-01T04:49:39.209Z,-123.37
2022-10-01T04:50:36.150Z,-123.48
2022-10-01T04:51:36.475Z,-123.90
2022-10-01T04:52:36.120Z,-123.93
2022-10-01T04:53:36.131Z,-123.86
2022-10-01T04:54:36.130Z,-124.52
2022-10-01T04:55:36.070Z,-124.57
2022-10-01T04:56:36.091Z,-124.15
2022-10-01T04:57:36.057Z,-123.71
2022-10-01T04:58:36.041Z,-123.41
2022-10-01T04:59:36.012Z,-122.99
2022-10-01T05:00:36.023Z,-122.82
2022-10-01T05:01:36.556Z,-122.72
2022-10-01T05:02:36.046Z,-122.79
2022-10-01T05:03:35.952Z,-122.42
2022-10-01T05:04:35.949Z,-122.72
2022-10-01T05:05:35.934Z,-123.34
2022-10-01T05:06:35.906Z,-123.34
2022-10-01T05:07:35.934Z,-123.74
2022-10-01T05:08:38.905Z,-124.02
2022-10-01T05:09:38.914Z,-124.04
2022-10-01T05:10:35.864Z,-124.13
2022-10-01T05:11:36.360Z,-124.32
2022-10-01T05:12:35.998Z,-124.26
2022-10-01T05:13:35.828Z,-123.79
2022-10-01T05:14:35.805Z,-123.61
2022-10-01T05:15:35.791Z,-124.15
2022-10-01T05:16:35.845Z,-124.11
2022-10-01T05:17:35.808Z,-124.05
2022-10-01T05:18:35.837Z,-123.79
2022-10-01T05:19:35.755Z,-123.89
2022-10-01T05:20:35.918Z,-124.21
2022-10-01T05:21:36.093Z,-124.26
2022-10-01T05:22:35.712Z,-124.19
2022-10-01T05:23:35.700Z,-124.53
2022-10-01T05:24:35.688Z,-124.11
2022-10-01T05:25:35.669Z,-124.07
2022-10-01T05:26:35.640Z,-124.36
2022-10-01T05:27:35.669Z,-124.46
2022-10-01T05:28:38.812Z,-124.47
2022-10-01T05:29:38.692Z,-124.50
2022-10-01T05:30:35.600Z,-124.79
2022-10-01T05:31:36.174Z,-124.77
2022-10-01T05:32:35.598Z,-124.70
2022-10-01T05:33:35.582Z,-124.47
2022-10-01T05:34:35.531Z,-124.36
2022-10-01T05:35:35.559Z,-124.47
2022-10-01T05:36:35.506Z,-124.55
2022-10-01T05:37:35.533Z,-124.54
2022-10-01T05:38:35.552Z,-124.27
2022-10-01T05:40:35.601Z,-124.51
2022-10-01T05:40:40.357Z,-124.49
2022-10-01T05:41:40.395Z,-124.48
2022-10-01T05:42:40.317Z,-124.80
2022-10-01T05:43:40.317Z,-124.43
2022-10-01T05:44:40.329Z,-124.74
2022-10-01T05:45:40.271Z,-124.63
2022-10-01T05:46:40.256Z,-124.48
2022-10-01T05:47:40.229Z,-124.81
2022-10-01T05:48:43.227Z,-124.65
2022-10-01T05:49:43.383Z,-124.64
2022-10-01T05:50:40.201Z,-124.74
2022-10-01T05:51:40.180Z,-125.18
2022-10-01T05:52:40.170Z,-125.26
2022-10-01T05:53:40.160Z,-125.18
2022-10-01T05:54:40.140Z,-124.76
2022-10-01T05:55:40.160Z,-124.81
2022-10-01T05:56:40.120Z,-124.81
2022-10-01T05:57:40.168Z,-124.81
2022-10-01T05:58:40.091Z,-125.10
2022-10-01T05:59:40.080Z,-125.21
2022-10-01T06:00:40.066Z,-125.71
2022-10-01T06:01:40.111Z,-125.94
2022-10-01T06:02:40.131Z,-125.65
2022-10-01T06:03:40.051Z,-125.50
2022-10-01T06:04:41.341Z,-125.62
2022-10-01T06:05:39.993Z,-125.54
2022-10-01T06:06:39.981Z,-125.56
2022-10-01T06:07:39.972Z,-125.95
2022-10-01T06:08:42.975Z,-126.03
2022-10-01T06:09:42.987Z,-125.86
2022-10-01T06:10:39.934Z,-126.03
2022-10-01T06:11:39.953Z,-125.83
2022-10-01T06:12:39.904Z,-126.03
2022-10-01T06:13:39.885Z,-126.00
2022-10-01T06:14:39.865Z,-125.73
2022-10-01T06:15:39.854Z,-125.84
2022-10-01T06:16:39.968Z,-125.86
2022-10-01T06:17:39.836Z,-126.00
2022-10-01T06:18:39.817Z,-126.03
2022-10-01T06:19:39.807Z,-125.73
2022-10-01T06:20:39.786Z,-126.03
2022-10-01T06:21:39.797Z,-126.03
2022-10-01T06:22:39.807Z,-126.03
2022-10-01T06:23:39.747Z,-126.03
2022-10-01T06:24:39.734Z,-126.03
2022-10-01T06:25:39.757Z,-126.03
2022-10-01T06:26:39.714Z,-126.03
2022-10-01T06:27:39.688Z,-126.03
2022-10-01T06:28:42.678Z,-126.03
2022-10-01T06:29:42.680Z,-126.03
2022-10-01T06:30:39.819Z,-126.03
2022-10-01T06:31:39.666Z,-126.03
2022-10-01T06:32:39.619Z,-126.03
2022-10-01T06:33:39.622Z,-126.03
2022-10-01T06:34:39.598Z,-126.82
2022-10-01T06:35:39.580Z,-126.03
2022-10-01T06:36:39.692Z,-126.03
2022-10-01T06:37:39.561Z,-126.90
2022-10-01T06:38:39.542Z,-126.97
2022-10-01T06:39:39.581Z,-126.77
2022-10-01T06:40:39.562Z,-126.65
2022-10-01T06:41:39.532Z,-126.92
2022-10-01T06:42:39.482Z,-127.16
2022-10-01T06:43:39.500Z,-126.78
2022-10-01T06:44:39.453Z,-127.01
2022-10-01T06:45:39.498Z,-126.03
2022-10-01T06:46:39.462Z,-126.03
2022-10-01T06:47:39.423Z,-126.63
2022-10-01T06:48:42.405Z,-126.76
2022-10-01T06:49:46.790Z,-126.70
2022-10-01T06:50:40.415Z,-126.03
2022-10-01T06:51:39.386Z,-126.03
2022-10-01T06:52:39.355Z,-125.97
2022-10-01T06:53:39.355Z,-125.76
2022-10-01T06:54:39.355Z,-125.65
2022-10-01T06:55:39.306Z,-126.03
2022-10-01T06:56:39.367Z,-126.03
2022-10-01T06:57:39.287Z,-125.95
2022-10-01T06:58:39.290Z,-126.03
2022-10-01T06:59:39.268Z,-126.03
2022-10-01T07:00:39.301Z,-126.03
2022-10-01T07:01:39.544Z,-126.03
2022-10-01T07:02:39.322Z,-126.68
2022-10-01T07:03:39.197Z,-126.63
2022-10-01T07:04:39.208Z,-126.03
2022-10-01T07:05:39.189Z,-126.03
2022-10-01T07:06:39.159Z,-126.03
2022-10-01T07:07:39.159Z,-126.03
2022-10-01T07:08:42.359Z,-127.24
2022-10-01T07:09:42.159Z,-127.24
2022-10-01T07:10:39.138Z,-127.24
2022-10-01T07:11:39.193Z,-127.24
2022-10-01T07:12:39.112Z,-128.35
2022-10-01T07:13:39.092Z,-128.46
2022-10-01T07:14:39.165Z,-128.45
2022-10-01T07:15:39.140Z,-127.24
2022-10-01T07:16:39.175Z,-127.24
2022-10-01T07:17:39.089Z,-127.24
2022-10-01T07:18:39.095Z,-127.24
2022-10-01T07:19:39.139Z,-127.24
2022-10-01T07:20:39.064Z,-128.44
2022-10-01T07:21:39.112Z,-128.46
2022-10-01T07:22:39.083Z,-128.46
2022-10-01T07:23:39.195Z,-128.30
2022-10-01T07:24:39.074Z,-127.24
2022-10-01T07:25:38.991Z,-127.24
2022-10-01T07:26:38.904Z,-128.39
2022-10-01T07:27:51.715Z,-128.46
2022-10-01T07:28:41.964Z,-128.46
2022-10-01T07:29:42.275Z,-128.46
2022-10-01T07:30:38.933Z,-128.46
2022-10-01T07:31:39.291Z,-128.46
2022-10-01T07:32:39.030Z,-128.39
2022-10-01T07:33:39.037Z,-128.46
2022-10-01T07:34:38.826Z,-128.46
2022-10-01T07:35:38.798Z,-128.46
2022-10-01T07:36:38.789Z,-128.46
2022-10-01T07:37:38.777Z,-128.46
2022-10-01T07:38:38.773Z,-128.46
2022-10-01T07:39:38.739Z,-128.46
2022-10-01T07:40:38.728Z,-129.68
2022-10-01T07:41:38.757Z,-129.68
2022-10-01T07:42:38.690Z,-129.68
2022-10-01T07:43:38.734Z,-129.68
2022-10-01T07:44:38.721Z,-129.68
2022-10-01T07:45:38.707Z,-128.46
2022-10-01T07:46:38.663Z,-129.68
2022-10-01T07:47:38.650Z,-129.68
2022-10-01T07:48:41.701Z,-129.68
2022-10-01T07:49:41.672Z,-129.68
2022-10-01T07:50:38.615Z,-129.68
2022-10-01T07:51:38.613Z,-128.46
2022-10-01T07:52:38.771Z,-128.46
2022-10-01T07:53:38.582Z,-129.68
2022-10-01T07:54:38.569Z,-129.68
2022-10-01T07:55:38.593Z,-129.68
2022-10-01T07:56:38.523Z,-129.68
2022-10-01T07:57:38.532Z,-129.68
2022-10-01T07:58:38.506Z,-129.68
2022-10-01T07:59:38.466Z,-129.68
2022-10-01T08:00:38.492Z,-129.68
2022-10-01T08:01:38.846Z,-129.68
2022-10-01T08:02:38.625Z,-129.68
2022-10-01T08:03:38.464Z,-129.68
2022-10-01T08:04:38.434Z,-129.68
2022-10-01T08:05:38.424Z,-129.68
2022-10-01T08:06:38.445Z,-129.68
2022-10-01T08:07:38.406Z,-130.90
2022-10-01T08:08:41.415Z,-129.68
2022-10-01T08:09:41.358Z,-129.68
2022-10-01T08:10:38.428Z,-130.90
2022-10-01T08:11:38.360Z,-130.90
2022-10-01T08:12:38.388Z,-130.90
2022-10-01T08:13:38.379Z,-130.90
2022-10-01T08:14:38.367Z,-130.90
2022-10-01T08:15:38.315Z,-130.90
2022-10-01T08:16:38.406Z,-130.90
2022-10-01T08:17:38.250Z,-130.90
2022-10-01T08:18:38.378Z,-130.90
2022-10-01T08:19:38.291Z,-130.90
2022-10-01T08:20:38.300Z,-132.12
2022-10-01T08:21:38.180Z,-132.12
2022-10-01T08:22:41.910Z,-132.12
2022-10-01T08:23:38.318Z,-132.12
2022-10-01T08:24:38.161Z,-132.12
2022-10-01T08:25:38.132Z,-132.12
2022-10-01T08:26:38.161Z,-132.12
2022-10-01T08:27:38.111Z,-132.12
2022-10-01T08:28:41.163Z,-133.34
2022-10-01T08:29:41.090Z,-132.12
2022-10-01T08:30:38.066Z,-133.34
2022-10-01T08:31:38.379Z,-133.34
2022-10-01T08:32:38.041Z,-133.34
2022-10-01T08:33:38.037Z,-133.34
2022-10-01T08:34:38.044Z,-133.34
2022-10-01T08:35:38.003Z,-134.56
2022-10-01T08:36:38.094Z,-134.56
2022-10-01T08:37:37.995Z,-134.56
2022-10-01T08:38:37.990Z,-133.34
2022-10-01T08:39:37.995Z,-134.56
2022-10-01T08:40:37.963Z,-134.56
2022-10-01T08:41:38.220Z,-134.56
2022-10-01T08:42:38.165Z,-134.56
2022-10-01T08:43:37.913Z,-134.56
2022-10-01T08:44:37.876Z,-134.56
2022-10-01T08:45:37.886Z,-135.77
2022-10-01T08:46:37.856Z,-135.77
2022-10-01T08:47:37.845Z,-135.77
2022-10-01T08:48:40.868Z,-135.77
2022-10-01T08:49:40.828Z,-135.77
2022-10-01T08:50:37.802Z,-135.77
2022-10-01T08:51:38.007Z,-135.77
2022-10-01T08:52:37.778Z,-135.77
2022-10-01T08:53:37.803Z,-135.77
2022-10-01T08:54:37.751Z,-135.77
2022-10-01T08:55:37.739Z,-135.77
2022-10-01T08:56:37.756Z,-136.99
2022-10-01T08:57:37.710Z,-136.99
2022-10-01T08:58:37.700Z,-136.99
2022-10-01T08:59:37.689Z,-136.99
2022-10-01T09:00:37.859Z,-136.99
2022-10-01T09:01:38.231Z,-138.21
2022-10-01T09:02:37.641Z,-136.99
2022-10-01T09:03:37.639Z,-138.21
2022-10-01T09:04:37.708Z,-138.21
2022-10-01T09:05:37.591Z,-138.21
2022-10-01T09:06:37.751Z,-139.43
2022-10-01T09:07:37.562Z,-139.43
2022-10-01T09:08:40.554Z,-139.43
2022-10-01T09:09:40.563Z,-139.43
2022-10-01T09:10:37.537Z,-140.65
2022-10-01T09:11:37.834Z,-140.65
2022-10-01T09:12:37.731Z,-140.65
2022-10-01T09:13:37.487Z,-141.87
2022-10-01T09:14:37.466Z,-141.87
2022-10-01T09:15:37.445Z,-141.87
2022-10-01T09:16:37.512Z,-143.08
2022-10-01T09:17:37.430Z,-143.08
2022-10-01T09:18:37.548Z,-143.08
2022-10-01T09:19:40.435Z,-143.08
2022-10-01T09:20:37.418Z,-143.08
2022-10-01T09:21:37.358Z,-144.30
2022-10-01T09:22:37.350Z,-144.30
2022-10-01T09:23:37.357Z,-144.30
2022-10-01T09:24:37.497Z,-144.30
2022-10-01T09:25:37.308Z,-145.52
2022-10-01T09:26:37.299Z,-145.52
2022-10-01T09:27:37.299Z,-145.52
2022-10-01T09:28:40.279Z,-145.52
2022-10-01T09:29:40.307Z,-145.52
2022-10-01T09:30:37.275Z,-145.52
2022-10-01T09:31:37.790Z,-145.52
2022-10-01T09:32:37.231Z,-146.74
2022-10-01T09:33:37.231Z,-146.74
2022-10-01T09:34:37.201Z,-145.52
2022-10-01T09:35:37.181Z,-145.52
2022-10-01T09:36:37.193Z,-146.74
2022-10-01T09:37:37.214Z,-146.74
2022-10-01T09:38:37.183Z,-145.52
2022-10-01T09:39:37.141Z,-145.52
2022-10-01T09:40:37.121Z,-146.74
2022-10-01T09:41:38.349Z,-146.74
2022-10-01T09:42:37.097Z,-146.74
2022-10-01T09:43:37.103Z,-146.74
2022-10-01T09:44:37.076Z,-146.74
2022-10-01T09:45:37.128Z,-146.74
2022-10-01T09:46:37.056Z,-147.96
2022-10-01T09:47:37.055Z,-147.96
2022-10-01T09:48:40.033Z,-149.17
2022-10-01T09:49:40.038Z,-149.17
2022-10-01T09:50:38.217Z,-149.17
2022-10-01T09:51:40.236Z,-149.17
2022-10-01T09:52:36.968Z,-149.17
2022-10-01T09:53:37.039Z,-149.17
2022-10-01T09:54:36.940Z,-147.96
2022-10-01T09:55:36.915Z,-149.17
2022-10-01T09:56:36.897Z,-149.17
2022-10-01T09:57:36.889Z,-149.17
2022-10-01T09:58:36.881Z,-149.17
2022-10-01T09:59:36.930Z,-149.17
2022-10-01T10:00:36.850Z,-150.39
2022-10-01T10:01:37.302Z,-150.39
2022-10-01T10:02:36.965Z,-149.17
2022-10-01T10:03:36.944Z,-150.39
2022-10-01T10:04:36.792Z,-150.39
2022-10-01T10:05:36.881Z,-151.61
2022-10-01T10:06:38.110Z,-151.61
2022-10-01T10:07:36.845Z,-151.61
2022-10-01T10:08:40.365Z,-151.61
2022-10-01T10:09:40.204Z,-150.39
2022-10-01T10:10:36.922Z,-151.61
2022-10-01T10:11:37.118Z,-150.39
2022-10-01T10:12:37.858Z,-150.39
2022-10-01T10:13:36.699Z,-151.61
2022-10-01T10:14:40.138Z,-151.61
2022-10-01T10:15:38.622Z,-151.61
2022-10-01T10:16:38.077Z,-151.61
2022-10-01T10:17:37.508Z,-152.83
2022-10-01T10:18:37.160Z,-152.83
2022-10-01T10:19:36.923Z,-152.83
2022-10-01T10:20:36.600Z,-151.61
2022-10-01T10:21:36.708Z,-151.61
2022-10-01T10:22:36.985Z,-151.61
2022-10-01T10:23:51.687Z,-151.61
2022-10-01T10:24:41.217Z,-151.61
2022-10-01T10:25:36.551Z,-151.61
2022-10-01T10:26:38.165Z,-151.61
2022-10-01T10:27:43.937Z,-151.61
2022-10-01T10:28:43.349Z,-151.61
2022-10-01T10:29:41.027Z,-151.61
2022-10-01T10:30:39.853Z,-151.61
2022-10-01T10:31:43.774Z,-151.61
2022-10-01T10:32:42.879Z,-152.83
2022-10-01T10:33:42.836Z,-152.83
2022-10-01T10:34:38.320Z,-152.83
2022-10-01T10:35:36.405Z,-152.83
2022-10-01T10:36:44.796Z,-152.83
2022-10-01T10:37:45.355Z,-152.83
2022-10-01T10:38:37.301Z,-152.83
2022-10-01T10:42:06.036Z,-152.83
2022-10-01T10:43:04.563Z,-152.83
2022-10-01T10:44:04.477Z,-152.83
2022-10-01T10:45:04.187Z,-152.83
2022-10-01T10:46:04.231Z,-154.04
2022-10-01T10:47:04.109Z,-154.04
2022-10-01T10:48:05.469Z,-154.04
2022-10-01T10:49:04.121Z,-155.26
2022-10-01T10:50:04.629Z,-154.04
2022-10-01T10:51:04.150Z,-155.26
2022-10-01T10:52:04.923Z,-155.26
2022-10-01T10:53:07.553Z,-156.48
2022-10-01T10:54:07.453Z,-156.48
2022-10-01T10:55:04.076Z,-156.48
2022-10-01T10:56:04.056Z,-156.48
2022-10-01T10:57:08.736Z,-156.48
2022-10-01T10:58:05.200Z,-156.48
2022-10-01T10:59:08.904Z,-156.48
2022-10-01T11:00:04.004Z,-156.48
2022-10-01T11:01:06.953Z,-156.48
2022-10-01T11:02:31.021Z,-155.26
2022-10-01T11:03:07.141Z,-155.26
2022-10-01T11:04:04.115Z,-155.26
2022-10-01T11:05:03.984Z,-155.26
2022-10-01T11:06:14.512Z,-156.48
2022-10-01T11:07:08.774Z,-156.48
2022-10-01T11:08:25.104Z,-156.48
2022-10-01T11:09:06.019Z,-156.48
2022-10-01T11:10:05.945Z,-156.48
2022-10-01T11:11:03.823Z,-155.26
2022-10-01T11:12:04.209Z,-155.26
2022-10-01T11:13:03.778Z,-156.48
2022-10-01T11:14:03.774Z,-156.48
2022-10-01T11:15:03.830Z,-157.70
2022-10-01T11:16:03.954Z,-157.70
2022-10-01T11:17:05.428Z,-157.70
2022-10-01T11:18:03.690Z,-157.70
2022-10-01T11:19:03.723Z,-157.70
2022-10-01T11:20:03.658Z,-158.91
2022-10-01T11:21:09.158Z,-157.70
2022-10-01T11:22:06.674Z,-157.70
2022-10-01T11:23:03.634Z,-157.70
2022-10-01T11:24:11.816Z,-157.70
2022-10-01T11:25:03.847Z,-157.70
2022-10-01T11:26:03.585Z,-157.70
2022-10-01T11:27:04.092Z,-157.70
2022-10-01T11:28:09.434Z,-157.70
2022-10-01T11:29:03.528Z,-157.70
2022-10-01T11:30:03.578Z,-157.70
2022-10-01T11:31:03.543Z,-157.70
2022-10-01T11:32:03.623Z,-157.70
2022-10-01T11:33:03.499Z,-157.70
2022-10-01T11:34:03.470Z,-157.70
2022-10-01T11:35:03.614Z,-157.70
2022-10-01T11:36:04.729Z,-157.70
2022-10-01T11:37:03.418Z,-157.70
2022-10-01T11:38:03.536Z,-157.70
2022-10-01T11:39:03.389Z,-157.70
2022-10-01T11:40:13.348Z,-157.70
2022-10-01T11:41:06.363Z,-157.70
2022-10-01T11:42:06.455Z,-156.48
2022-10-01T11:43:03.368Z,-156.48
2022-10-01T11:44:03.556Z,-156.48
2022-10-01T11:45:03.376Z,-156.48
2022-10-01T11:46:03.459Z,-156.48
2022-10-01T11:47:03.297Z,-156.48
2022-10-01T11:48:03.368Z,-156.48
2022-10-01T11:49:03.260Z,-156.48
2022-10-01T11:50:03.280Z,-156.48
2022-10-01T11:51:03.291Z,-156.48
2022-10-01T11:52:03.315Z,-157.70
2022-10-01T11:53:03.201Z,-157.70
2022-10-01T11:54:03.236Z,-157.70
2022-10-01T11:55:03.182Z,-157.70
2022-10-01T11:56:03.171Z,-156.48
2022-10-01T11:57:03.155Z,-157.70
2022-10-01T11:58:03.206Z,-156.48
2022-10-01T11:59:03.113Z,-156.48
2022-10-01T12:00:03.161Z,-156.48
2022-10-01T12:01:06.109Z,-156.48
2022-10-01T12:02:06.120Z,-156.48
2022-10-01T12:03:03.086Z,-156.48
2022-10-01T12:04:03.153Z,-156.48
2022-10-01T12:05:03.133Z,-156.48
2022-10-01T12:06:03.016Z,-156.48
2022-10-01T12:07:03.019Z,-156.48
2022-10-01T12:08:02.996Z,-156.48
2022-10-01T12:09:02.988Z,-156.48
2022-10-01T12:10:03.016Z,-156.48
2022-10-01T12:11:02.938Z,-155.26
2022-10-01T12:12:02.969Z,-156.48
2022-10-01T12:13:03.009Z,-155.26
2022-10-01T12:14:02.910Z,-155.26
2022-10-01T12:15:06.733Z,-155.26
2022-10-01T12:16:02.905Z,-155.26
2022-10-01T12:17:02.882Z,-155.26
2022-10-01T12:18:02.882Z,-154.04
2022-10-01T12:19:02.852Z,-154.04
2022-10-01T12:20:02.863Z,-154.04
2022-10-01T12:21:05.801Z,-154.04
2022-10-01T12:22:05.886Z,-154.04
2022-10-01T12:23:02.772Z,-154.04
2022-10-01T12:24:02.784Z,-154.04
2022-10-01T12:25:02.754Z,-155.26
2022-10-01T12:26:02.755Z,-155.26
2022-10-01T12:27:02.814Z,-155.26
2022-10-01T12:28:03.221Z,-155.26
2022-10-01T12:29:02.801Z,-155.26